Terminal Aerodrome Forecast
Issued by NWS

Home | Current Version | Previous Version | Text Only | Print | Product List | Glossary On
Versions: 1 2 3 4 5 6 7 8 9 10 11 12 13 14 15 16 17 18 19
604
FTUS44 KTSA 261232 AAA
TAFXNA
TAF AMD
KXNA 261232Z 2613/2712 23006KT P6SM SKC
      TEMPO 2613/2614 3SM BR SCT002
     FM261400 VRB03KT P6SM SCT025 SCT250
     FM270900 00000KT 3SM BR SKC=

USA.gov is the U.S. government's official web portal to all federal, state and local government web resources and services.